createdAt,value
2023-03-17T00:06:56.616Z,99.90
2023-03-17T00:13:57.484Z,99.90
2023-03-17T00:20:58.720Z,99.90
2023-03-17T00:27:59.592Z,99.90
2023-03-17T00:35:00.712Z,99.90
2023-03-17T00:42:01.434Z,99.90
2023-03-17T00:56:18.964Z,99.90
2023-03-17T01:03:20.439Z,99.90
2023-03-17T01:10:28.889Z,99.90
2023-03-17T01:17:29.561Z,99.90
2023-03-17T01:24:30.085Z,99.90
2023-03-17T01:31:31.438Z,99.90
2023-03-17T01:38:32.453Z,99.90
2023-03-17T01:46:07.066Z,99.90
2023-03-17T01:53:08.635Z,99.90
2023-03-17T02:00:16.132Z,99.90
2023-03-17T02:07:16.426Z,99.90
2023-03-17T02:14:16.886Z,99.90
2023-03-17T02:21:39.330Z,99.90
2023-03-17T02:28:40.971Z,99.90
2023-03-17T02:35:41.400Z,99.90
2023-03-17T02:42:42.373Z,99.90
2023-03-17T02:49:43.598Z,99.90
2023-03-17T02:56:43.871Z,99.90
2023-03-17T03:03:44.424Z,99.90
2023-03-17T03:10:44.595Z,99.90
2023-03-17T03:17:45.433Z,99.90
2023-03-17T03:24:46.021Z,99.90
2023-03-17T03:31:48.522Z,99.90
2023-03-17T03:38:49.462Z,99.90
2023-03-17T03:45:50.315Z,99.90
2023-03-17T03:52:50.588Z,99.90
2023-03-17T03:59:50.964Z,99.90
2023-03-17T04:06:51.382Z,99.90
2023-03-17T04:13:51.935Z,99.90
2023-03-17T04:20:52.029Z,99.90
2023-03-17T04:27:52.319Z,99.90
2023-03-17T04:34:52.988Z,99.90
2023-03-17T04:41:53.196Z,99.90
2023-03-17T04:48:53.735Z,99.90
2023-03-17T04:55:53.796Z,99.90
2023-03-17T05:02:54.243Z,99.90
2023-03-17T05:09:54.694Z,99.90
2023-03-17T05:16:55.375Z,99.90
2023-03-17T05:23:55.784Z,99.90
2023-03-17T05:30:56.493Z,99.90
2023-03-17T05:37:56.836Z,99.90
2023-03-17T05:44:57.280Z,99.90
2023-03-17T05:51:58.712Z,99.90
2023-03-17T05:59:01.007Z,99.90
2023-03-17T06:06:01.572Z,99.90
2023-03-17T06:13:04.023Z,99.90
2023-03-17T06:20:05.382Z,99.90
2023-03-17T06:27:05.571Z,99.90
2023-03-17T06:34:06.615Z,99.90
2023-03-17T06:41:07.112Z,99.90
2023-03-17T06:48:07.775Z,99.90
2023-03-17T06:55:08.685Z,99.90
2023-03-17T07:02:11.390Z,99.90
2023-03-17T07:09:11.716Z,99.90
2023-03-17T07:16:15.146Z,99.90
2023-03-17T07:23:22.722Z,99.90
2023-03-17T07:30:23.305Z,99.90
2023-03-17T07:37:24.223Z,99.90
2023-03-17T07:44:25.764Z,99.90
2023-03-17T07:51:27.969Z,99.90
2023-03-17T07:58:28.380Z,99.90
2023-03-17T08:05:28.776Z,99.90
2023-03-17T08:12:29.128Z,99.90
2023-03-17T08:19:29.587Z,99.90
2023-03-17T08:26:30.094Z,99.90
2023-03-17T08:33:30.505Z,99.90
2023-03-17T08:40:31.274Z,99.90
2023-03-17T08:47:33.868Z,99.90
2023-03-17T08:54:34.560Z,99.90
2023-03-17T09:01:35.835Z,99.90
2023-03-17T09:08:39.753Z,99.90
2023-03-17T09:15:40.418Z,99.90
2023-03-17T09:22:41.296Z,99.90
2023-03-17T09:29:42.257Z,99.90
2023-03-17T09:36:42.659Z,99.90
2023-03-17T09:43:54.379Z,99.90
2023-03-17T09:51:08.866Z,99.90
2023-03-17T09:58:11.543Z,99.90
2023-03-17T10:05:21.389Z,99.90
2023-03-17T10:12:27.454Z,99.90
2023-03-17T10:19:49.499Z,99.90
2023-03-17T10:26:53.187Z,99.90
2023-03-17T10:33:55.479Z,99.90
2023-03-17T10:41:03.343Z,99.90
2023-03-17T10:48:09.461Z,99.90
2023-03-17T10:55:15.243Z,99.90
2023-03-17T11:02:28.012Z,99.90
2023-03-17T11:09:34.992Z,99.90
2023-03-17T11:16:38.098Z,99.90
2023-03-17T11:23:55.524Z,99.90
2023-03-17T11:31:09.722Z,99.90
2023-03-17T11:38:12.851Z,99.90
2023-03-17T11:45:16.849Z,99.90
2023-03-17T11:52:30.242Z,99.90
2023-03-17T11:59:42.137Z,99.90
2023-03-17T12:06:50.522Z,99.50
2023-03-17T12:14:02.141Z,98.70
2023-03-17T12:21:24.438Z,98.50
2023-03-17T12:28:34.147Z,98.00
2023-03-17T12:35:38.709Z,97.40
2023-03-17T12:43:04.417Z,97.70
2023-03-17T12:50:31.978Z,97.70
2023-03-17T12:57:43.574Z,97.20
2023-03-17T13:04:57.668Z,96.20
2023-03-17T13:12:02.440Z,96.40
2023-03-17T13:19:27.923Z,96.00
2023-03-17T13:27:01.534Z,95.50
2023-03-17T13:34:17.828Z,94.60
2023-03-17T13:41:33.074Z,94.60
2023-03-17T13:48:38.498Z,94.60
2023-03-17T13:55:41.181Z,94.30
2023-03-17T14:02:43.345Z,93.80
2023-03-17T14:09:44.184Z,93.90
2023-03-17T14:16:51.226Z,94.00
2023-03-17T14:24:00.909Z,93.80
2023-03-17T14:31:07.176Z,94.00
2023-03-17T14:38:26.965Z,93.60
2023-03-17T14:45:44.593Z,93.10
2023-03-17T14:52:44.862Z,93.10
2023-03-17T14:59:58.088Z,93.30
2023-03-17T15:07:01.616Z,92.90
2023-03-17T15:14:12.788Z,92.80
2023-03-17T15:21:34.006Z,93.20
2023-03-17T15:28:34.264Z,92.70
2023-03-17T15:35:34.583Z,93.20
2023-03-17T15:42:38.227Z,93.00
2023-03-17T15:49:38.352Z,93.30
2023-03-17T15:56:39.602Z,93.70
2023-03-17T16:03:42.043Z,93.80
2023-03-17T16:10:42.361Z,94.10
2023-03-17T16:17:43.520Z,94.20
2023-03-17T16:24:44.586Z,94.20
2023-03-17T16:31:49.001Z,94.40
2023-03-17T16:38:50.834Z,94.50
2023-03-17T16:45:53.167Z,94.80
2023-03-17T16:52:54.945Z,95.00
2023-03-17T16:59:55.176Z,96.30
2023-03-17T17:06:56.573Z,97.80
2023-03-17T17:13:58.337Z,98.70
2023-03-17T17:20:58.560Z,99.30
2023-03-17T17:27:59.688Z,99.90
2023-03-17T17:35:00.210Z,99.90
2023-03-17T17:42:00.743Z,99.90
2023-03-17T17:49:01.142Z,99.90
2023-03-17T17:56:01.939Z,99.90
2023-03-17T18:03:02.642Z,99.90
2023-03-17T18:10:03.481Z,99.90
2023-03-17T18:17:04.036Z,99.90
2023-03-17T18:24:04.964Z,99.90
2023-03-17T18:31:10.426Z,99.90
2023-03-17T18:38:10.663Z,99.90
2023-03-17T18:45:11.898Z,99.90
2023-03-17T18:52:12.938Z,99.90
2023-03-17T18:59:13.012Z,99.90
2023-03-17T19:06:16.510Z,99.90
2023-03-17T19:13:16.903Z,99.90
2023-03-17T19:20:18.611Z,99.90
2023-03-17T19:27:19.404Z,99.90
2023-03-17T19:34:20.028Z,99.90
2023-03-17T19:41:20.643Z,99.90
2023-03-17T19:48:21.354Z,99.90
2023-03-17T19:55:24.330Z,99.90
2023-03-17T20:02:24.556Z,99.90
2023-03-17T20:09:26.840Z,99.90
2023-03-17T20:16:27.458Z,99.90
2023-03-17T20:23:28.219Z,99.90
2023-03-17T20:30:28.691Z,99.90
2023-03-17T20:37:29.249Z,99.90
2023-03-17T20:44:30.227Z,99.90
2023-03-17T20:51:30.718Z,99.90
2023-03-17T20:58:31.157Z,99.90
2023-03-17T21:05:32.514Z,99.90
2023-03-17T21:12:32.715Z,99.90
2023-03-17T21:19:33.294Z,99.90
2023-03-17T21:26:33.603Z,99.90
2023-03-17T21:33:34.599Z,99.90
2023-03-17T21:40:35.158Z,99.90
2023-03-17T21:47:40.127Z,99.90
2023-03-17T21:54:40.656Z,99.90
2023-03-17T22:01:43.500Z,99.90
2023-03-17T22:08:45.628Z,99.90
2023-03-17T22:15:46.383Z,99.90
2023-03-17T22:22:46.611Z,99.90
2023-03-17T22:29:47.377Z,99.90
2023-03-17T22:36:47.600Z,99.90
2023-03-17T22:43:48.207Z,99.90
2023-03-17T22:50:48.858Z,99.90
2023-03-17T22:57:49.257Z,99.90
2023-03-17T23:04:50.111Z,99.90
2023-03-17T23:11:51.172Z,99.90
2023-03-17T23:18:51.429Z,99.90
2023-03-17T23:25:51.918Z,99.90
2023-03-17T23:32:52.258Z,99.90
2023-03-17T23:39:52.913Z,99.90
2023-03-17T23:46:53.730Z,99.90
2023-03-17T23:53:54.264Z,99.90
